Terminal Aerodrome Forecast
Issued by NWS

Home | Current Version | Previous Version | Text Only | Print | Product List | Glossary On
Versions: 1 2 3 4 5 6 7 8 9 10 11 12 13 14 15 16 17 18 19 20 21 22 23 24 25 26
000
FTUS43 KICT 271134
TAFRSL
TAF
KRSL 271134Z 2712/2812 34006KT 3SM BR OVC004
      TEMPO 2712/2714 6SM BR SCT004 OVC008
     FM271400 36006KT P6SM OVC008
     FM271500 36006KT P6SM BKN015
     FM271700 03004KT P6SM SCT035
     FM280000 09007KT P6SM FEW200
     FM280800 12006KT 6SM BR BKN150=

USA.gov is the U.S. government's official web portal to all federal, state and local government web resources and services.